createdAt,value
2023-03-03T00:01:05.712Z,101980.63
2023-03-03T00:03:33.265Z,101983.31
2023-03-03T00:06:00.208Z,101990.44
2023-03-03T00:08:27.519Z,101978.91
2023-03-03T00:10:55.492Z,101977.88
2023-03-03T00:13:25.760Z,101983.00
2023-03-03T00:15:54.477Z,101959.13
2023-03-03T00:18:37.417Z,101991.53
2023-03-03T00:21:20.813Z,101984.50
2023-03-03T00:23:47.689Z,101971.56
2023-03-03T00:26:29.481Z,101990.09
2023-03-03T00:28:57.079Z,101977.81
2023-03-03T00:31:35.606Z,102002.44
2023-03-03T00:34:28.454Z,101997.84
2023-03-03T00:36:58.167Z,101982.91
2023-03-03T00:39:36.185Z,102009.44
2023-03-03T00:42:13.294Z,101995.56
2023-03-03T00:44:44.297Z,102011.47
2023-03-03T00:47:32.767Z,101983.50
2023-03-03T00:50:11.712Z,101995.66
2023-03-03T00:52:44.801Z,101992.09
2023-03-03T00:55:12.255Z,102002.78
2023-03-03T00:57:39.308Z,102005.53
2023-03-03T01:00:10.101Z,101988.00
2023-03-03T01:02:37.295Z,101985.31
2023-03-03T01:05:04.544Z,101991.38
2023-03-03T01:07:31.469Z,101989.72
2023-03-03T01:09:58.382Z,101962.78
2023-03-03T01:12:25.297Z,101985.53
2023-03-03T01:14:54.834Z,101991.72
2023-03-03T01:17:21.813Z,101992.66
2023-03-03T01:19:48.743Z,102000.63
2023-03-03T01:22:16.001Z,101995.25
2023-03-03T01:24:42.899Z,101992.56
2023-03-03T01:27:10.396Z,101992.72
2023-03-03T01:29:37.518Z,101992.66
2023-03-03T01:32:04.497Z,101995.31
2023-03-03T01:34:31.577Z,102000.50
2023-03-03T01:37:01.028Z,101983.91
2023-03-03T01:39:28.085Z,102000.47
2023-03-03T01:41:54.989Z,101981.97
2023-03-03T01:44:21.868Z,101995.09
2023-03-03T01:46:57.366Z,101998.53
2023-03-03T01:49:39.497Z,102009.00
2023-03-03T01:52:44.060Z,102004.78
2023-03-03T01:55:23.592Z,102008.31
2023-03-03T01:58:12.513Z,102011.91
2023-03-03T02:00:42.703Z,102012.94
2023-03-03T02:03:10.845Z,102011.28
2023-03-03T02:05:40.176Z,101990.91
2023-03-03T02:08:10.141Z,101991.69
2023-03-03T02:10:37.973Z,101975.94
2023-03-03T02:13:04.901Z,101965.50
2023-03-03T02:15:36.016Z,101982.28
2023-03-03T02:18:13.368Z,101990.81
2023-03-03T02:21:15.891Z,101990.66
2023-03-03T02:24:01.314Z,101971.22
2023-03-03T02:26:29.365Z,101965.03
2023-03-03T02:29:01.676Z,101962.47
2023-03-03T02:31:31.592Z,101976.41
2023-03-03T02:33:59.968Z,101972.78
2023-03-03T02:36:34.297Z,101957.03
2023-03-03T02:39:30.542Z,101957.69
2023-03-03T02:42:18.846Z,101913.84
2023-03-03T02:44:50.947Z,101961.94
2023-03-03T02:47:18.419Z,101958.41
2023-03-03T02:49:45.317Z,101955.66
2023-03-03T02:52:14.742Z,101971.47
2023-03-03T02:54:44.959Z,101966.16
2023-03-03T02:57:11.953Z,101969.06
2023-03-03T02:59:38.825Z,101967.25
2023-03-03T03:02:10.838Z,101972.66
2023-03-03T03:04:38.049Z,101967.41
2023-03-03T03:07:05.138Z,101961.38
2023-03-03T03:09:34.406Z,101962.03
2023-03-03T03:12:02.503Z,101947.97
2023-03-03T03:14:31.770Z,101947.16
2023-03-03T03:16:59.307Z,101971.66
2023-03-03T03:19:29.188Z,101964.75
2023-03-03T03:21:59.264Z,101978.72
2023-03-03T03:24:26.495Z,101951.38
2023-03-03T03:26:58.052Z,101955.63
2023-03-03T03:29:26.981Z,101940.84
2023-03-03T03:31:54.324Z,101969.72
2023-03-03T03:34:21.256Z,101948.78
2023-03-03T03:36:50.052Z,101959.25
2023-03-03T03:39:18.564Z,101957.53
2023-03-03T03:41:47.687Z,101962.66
2023-03-03T03:44:15.016Z,101970.81
2023-03-03T03:46:42.711Z,101962.03
2023-03-03T03:49:10.733Z,101980.53
2023-03-03T03:51:41.237Z,101959.31
2023-03-03T03:54:09.442Z,101976.88
2023-03-03T03:56:37.265Z,101970.63
2023-03-03T03:59:07.592Z,101974.13
2023-03-03T04:01:35.138Z,101966.16
2023-03-03T04:04:04.068Z,101957.41
2023-03-03T04:06:31.672Z,101977.63
2023-03-03T04:08:59.098Z,101983.00
2023-03-03T04:11:27.822Z,101974.31
2023-03-03T04:13:55.133Z,101990.34
2023-03-03T04:16:22.310Z,101992.00
2023-03-03T04:18:49.232Z,101974.47
2023-03-03T04:21:17.576Z,101986.72
2023-03-03T04:23:46.105Z,101983.38
2023-03-03T04:26:13.300Z,101988.72
2023-03-03T04:28:41.080Z,101972.94
2023-03-03T04:31:08.583Z,101976.34
2023-03-03T04:33:36.131Z,101987.59
2023-03-03T04:36:05.251Z,101969.22
2023-03-03T04:38:32.803Z,101992.94
2023-03-03T04:41:00.050Z,101988.63
2023-03-03T04:43:29.744Z,102000.88
2023-03-03T04:45:57.808Z,101997.41
2023-03-03T04:48:24.775Z,102006.97
2023-03-03T04:50:52.763Z,101989.44
2023-03-03T04:53:20.670Z,101990.34
2023-03-03T04:55:50.821Z,101994.84
2023-03-03T04:58:19.205Z,101987.81
2023-03-03T05:00:55.657Z,102002.78
2023-03-03T05:03:23.757Z,101984.25
2023-03-03T05:05:50.743Z,101996.38
2023-03-03T05:08:17.661Z,101982.28
2023-03-03T05:10:44.654Z,101996.28
2023-03-03T05:13:11.821Z,102001.53
2023-03-03T05:15:39.223Z,102004.94
2023-03-03T05:18:06.871Z,102001.38
2023-03-03T05:20:33.753Z,101994.41
2023-03-03T05:23:01.623Z,101999.69
2023-03-03T05:25:28.653Z,101984.78
2023-03-03T05:27:55.605Z,101999.00
2023-03-03T05:30:22.640Z,101997.22
2023-03-03T05:32:49.656Z,101988.44
2023-03-03T05:35:16.614Z,101995.38
2023-03-03T05:37:47.188Z,101989.28
2023-03-03T05:40:15.166Z,101986.69
2023-03-03T05:42:42.176Z,102000.78
2023-03-03T05:45:09.858Z,101986.72
2023-03-03T05:47:36.902Z,101974.50
2023-03-03T05:50:04.981Z,102005.28
2023-03-03T05:52:31.940Z,101984.25
2023-03-03T05:54:58.889Z,101990.38
2023-03-03T05:57:25.816Z,101978.06
2023-03-03T05:59:52.803Z,101989.44
2023-03-03T06:02:19.686Z,101987.63
2023-03-03T06:04:46.572Z,101982.41
2023-03-03T06:07:13.548Z,101999.09
2023-03-03T06:09:40.541Z,101994.59
2023-03-03T06:12:07.611Z,101997.16
2023-03-03T06:14:34.528Z,101985.84
2023-03-03T06:17:01.471Z,101973.59
2023-03-03T06:19:28.405Z,101989.38
2023-03-03T06:21:55.439Z,102007.06
2023-03-03T06:24:25.180Z,102000.47
2023-03-03T06:26:52.497Z,102027.72
2023-03-03T06:29:19.375Z,102021.84
2023-03-03T06:31:46.524Z,102014.72
2023-03-03T06:34:13.435Z,102022.41
2023-03-03T06:36:40.627Z,102018.06
2023-03-03T06:39:07.534Z,102021.41
2023-03-03T06:41:34.640Z,102034.69
2023-03-03T06:44:01.588Z,102022.75
2023-03-03T06:46:28.642Z,102043.41
2023-03-03T06:48:55.671Z,102051.03
2023-03-03T06:51:33.668Z,102045.38
2023-03-03T06:54:10.435Z,102033.50
2023-03-03T06:56:38.443Z,102051.22
2023-03-03T06:59:40.497Z,102036.13
2023-03-03T07:02:17.097Z,102046.41
2023-03-03T07:04:45.527Z,102056.47
2023-03-03T07:07:22.636Z,102067.28
2023-03-03T07:09:56.096Z,102061.31
2023-03-03T07:12:28.311Z,102029.78
2023-03-03T07:15:22.410Z,102063.03
2023-03-03T07:17:54.725Z,102068.22
2023-03-03T07:20:36.964Z,102075.06
2023-03-03T07:23:28.997Z,102072.94
2023-03-03T07:25:56.044Z,102077.78
2023-03-03T07:28:29.047Z,102074.22
2023-03-03T07:30:58.173Z,102074.25
2023-03-03T07:33:35.548Z,102071.94
2023-03-03T07:36:04.385Z,102077.50
2023-03-03T07:38:41.281Z,102073.00
2023-03-03T07:41:15.254Z,102084.38
2023-03-03T07:43:54.776Z,102074.72
2023-03-03T07:46:29.307Z,102084.63
2023-03-03T07:49:00.496Z,102069.91
2023-03-03T07:51:41.881Z,102070.97
2023-03-03T07:54:40.397Z,102077.00
2023-03-03T07:57:10.215Z,102098.88
2023-03-03T07:59:46.183Z,102097.94
2023-03-03T08:02:35.225Z,102082.91
2023-03-03T08:05:05.171Z,102089.47
2023-03-03T08:07:33.293Z,102083.59
2023-03-03T08:10:01.976Z,102102.03
2023-03-03T08:12:34.146Z,102104.34
2023-03-03T08:15:23.212Z,102081.28
2023-03-03T08:17:53.299Z,102104.09
2023-03-03T08:20:35.108Z,102102.09
2023-03-03T08:23:02.001Z,102093.22
2023-03-03T08:25:29.324Z,102089.84
2023-03-03T08:27:56.337Z,102102.75
2023-03-03T08:30:23.266Z,102098.28
2023-03-03T08:32:50.513Z,102075.53
2023-03-03T08:35:17.447Z,102088.59
2023-03-03T08:37:44.457Z,102105.22
2023-03-03T08:40:11.835Z,102098.97
2023-03-03T08:42:38.725Z,102102.56
2023-03-03T08:45:05.968Z,102085.84
2023-03-03T08:47:33.603Z,102105.22
2023-03-03T08:50:00.631Z,102103.38
2023-03-03T08:52:27.551Z,102109.44
2023-03-03T08:54:54.481Z,102103.28
2023-03-03T08:57:21.412Z,102111.06
2023-03-03T08:59:48.307Z,102106.66
2023-03-03T09:02:15.393Z,102106.94
2023-03-03T09:04:42.460Z,102108.41
2023-03-03T09:07:09.517Z,102093.50
2023-03-03T09:09:37.392Z,102109.25
2023-03-03T09:12:17.799Z,102111.69
2023-03-03T09:14:45.231Z,102115.19
2023-03-03T09:17:33.192Z,102117.47
2023-03-03T09:20:38.976Z,102121.22
2023-03-03T09:23:24.096Z,102127.31
2023-03-03T09:25:52.616Z,102116.75
2023-03-03T09:28:31.464Z,102133.41
2023-03-03T09:31:01.608Z,102134.41
2023-03-03T09:33:41.250Z,102123.63
2023-03-03T09:36:26.983Z,102115.66
2023-03-03T09:38:56.175Z,102127.91
2023-03-03T09:42:05.213Z,102127.00
2023-03-03T09:45:17.906Z,102125.09
2023-03-03T09:48:26.189Z,102124.88
2023-03-03T09:51:36.385Z,102121.16
2023-03-03T09:54:44.772Z,102123.72
2023-03-03T09:57:33.115Z,102128.28
2023-03-03T10:00:27.190Z,102124.81
2023-03-03T10:03:11.469Z,102129.13
2023-03-03T10:05:59.179Z,102129.38
2023-03-03T10:08:31.817Z,102138.19
2023-03-03T10:11:33.381Z,102128.47
2023-03-03T10:14:44.035Z,102135.31
2023-03-03T10:17:25.954Z,102130.03
2023-03-03T10:20:09.960Z,102139.66
2023-03-03T10:23:21.091Z,102134.25
2023-03-03T10:25:59.758Z,102138.63
2023-03-03T10:28:54.582Z,102140.25
2023-03-03T10:31:51.626Z,102135.31
2023-03-03T10:34:49.641Z,102132.19
2023-03-03T10:38:00.256Z,102123.94
2023-03-03T10:40:43.158Z,102133.06
2023-03-03T10:43:31.698Z,102132.44
2023-03-03T10:46:49.990Z,102138.63
2023-03-03T10:49:46.482Z,102125.34
2023-03-03T10:52:42.359Z,102127.09
2023-03-03T10:55:31.767Z,102127.19
2023-03-03T10:58:48.612Z,102129.66
2023-03-03T11:01:49.208Z,102131.47
2023-03-03T11:04:44.882Z,102142.34
2023-03-03T11:07:47.469Z,102132.63
2023-03-03T11:10:50.235Z,102118.75
2023-03-03T11:13:42.281Z,102126.47
2023-03-03T11:16:48.787Z,102125.25
2023-03-03T11:20:06.831Z,102129.78
2023-03-03T11:23:02.795Z,102127.09
2023-03-03T11:26:09.656Z,102112.63
2023-03-03T11:29:01.302Z,102128.34
2023-03-03T11:31:42.665Z,102125.69
2023-03-03T11:34:44.151Z,102124.06
2023-03-03T11:37:41.215Z,102125.91
2023-03-03T11:40:25.857Z,102126.72
2023-03-03T11:43:18.584Z,102118.81
2023-03-03T11:45:59.847Z,102121.56
2023-03-03T11:48:41.681Z,102115.97
2023-03-03T11:51:36.521Z,102112.97
2023-03-03T11:54:11.102Z,102117.88
2023-03-03T11:56:47.047Z,102123.94
2023-03-03T11:59:38.211Z,102118.78
2023-03-03T12:02:51.557Z,102109.91
2023-03-03T12:06:01.414Z,102100.00
2023-03-03T12:09:03.853Z,102111.25
2023-03-03T12:12:16.016Z,102099.50
2023-03-03T12:15:13.784Z,102083.47
2023-03-03T12:18:08.491Z,102089.25
2023-03-03T12:20:52.076Z,102087.75
2023-03-03T12:23:56.023Z,102085.19
2023-03-03T12:26:53.933Z,102071.56
2023-03-03T12:29:55.745Z,102078.44
2023-03-03T12:32:48.397Z,102079.59
2023-03-03T12:35:31.126Z,102052.63
2023-03-03T12:38:25.569Z,102054.84
2023-03-03T12:41:08.511Z,102037.78
2023-03-03T12:43:59.892Z,102066.53
2023-03-03T12:46:45.321Z,102067.91
2023-03-03T12:49:13.186Z,102065.94
2023-03-03T12:52:16.080Z,102055.63
2023-03-03T12:54:56.862Z,102052.31
2023-03-03T12:57:43.478Z,102054.81
2023-03-03T13:00:40.300Z,102047.56
2023-03-03T13:03:43.627Z,102049.97
2023-03-03T13:06:32.591Z,102043.00
2023-03-03T13:09:31.811Z,102040.16
2023-03-03T13:12:31.002Z,102046.84
2023-03-03T13:15:11.753Z,102036.88
2023-03-03T13:17:59.982Z,102034.25
2023-03-03T13:21:06.683Z,102029.38
2023-03-03T13:23:47.731Z,102030.81
2023-03-03T13:26:44.020Z,102025.97
2023-03-03T13:29:42.203Z,102030.03
2023-03-03T13:32:18.143Z,102015.66
2023-03-03T13:35:15.559Z,101995.50
2023-03-03T13:37:49.617Z,102005.91
2023-03-03T13:40:29.693Z,102000.78
2023-03-03T13:43:13.603Z,102005.50
2023-03-03T13:46:26.799Z,101999.84
2023-03-03T13:49:36.948Z,101994.66
2023-03-03T13:52:14.362Z,101984.34
2023-03-03T13:55:14.511Z,101993.44
2023-03-03T13:57:56.405Z,101983.53
2023-03-03T14:00:37.564Z,101981.63
2023-03-03T14:04:02.592Z,101980.97
2023-03-03T14:06:30.595Z,101971.66
2023-03-03T14:09:52.223Z,101970.72
2023-03-03T14:12:30.691Z,101966.03
2023-03-03T14:15:20.769Z,101955.53
2023-03-03T14:18:20.801Z,101962.56
2023-03-03T14:20:51.986Z,101949.75
2023-03-03T14:23:57.281Z,101960.97
2023-03-03T14:26:24.363Z,101949.66
2023-03-03T14:28:53.080Z,101946.13
2023-03-03T14:31:43.440Z,101942.72
2023-03-03T14:34:41.790Z,101936.09
2023-03-03T14:37:23.539Z,101933.66
2023-03-03T14:40:07.476Z,101925.78
2023-03-03T14:42:45.666Z,101920.44
2023-03-03T14:45:41.837Z,101908.66
2023-03-03T14:48:22.791Z,101920.66
2023-03-03T14:51:24.319Z,101918.28
2023-03-03T14:53:52.656Z,101911.59
2023-03-03T14:56:33.853Z,101914.66
2023-03-03T14:59:21.842Z,101906.13
2023-03-03T15:02:29.432Z,101903.75
2023-03-03T15:05:20.093Z,101900.13
2023-03-03T15:07:53.455Z,101891.19
2023-03-03T15:10:40.775Z,101899.59
2023-03-03T15:13:33.271Z,101897.63
2023-03-03T15:16:00.290Z,101905.72
2023-03-03T15:18:29.857Z,101892.59
2023-03-03T15:21:05.614Z,101901.38
2023-03-03T15:23:58.637Z,101896.75
2023-03-03T15:26:48.100Z,101896.59
2023-03-03T15:29:28.691Z,101891.72
2023-03-03T15:32:30.686Z,101888.22
2023-03-03T15:35:28.666Z,101883.13
2023-03-03T15:38:39.199Z,101874.09
2023-03-03T15:41:23.236Z,101874.91
2023-03-03T15:44:26.567Z,101875.84
2023-03-03T15:47:05.379Z,101866.13
2023-03-03T15:50:06.741Z,101868.53
2023-03-03T15:53:14.910Z,101875.81
2023-03-03T15:55:52.740Z,101867.06
2023-03-03T15:59:19.788Z,101865.66
2023-03-03T16:02:26.118Z,101873.03
2023-03-03T16:05:12.751Z,101863.44
2023-03-03T16:08:14.077Z,101859.25
2023-03-03T16:11:17.701Z,101869.88
2023-03-03T16:14:01.782Z,101863.50
2023-03-03T16:16:52.840Z,101862.31
2023-03-03T16:19:37.901Z,101866.50
2023-03-03T16:22:31.601Z,101869.19
2023-03-03T16:25:25.352Z,101873.56
2023-03-03T16:28:26.524Z,101870.59
2023-03-03T16:31:14.142Z,101859.91
2023-03-03T16:34:10.025Z,101867.16
2023-03-03T16:36:55.210Z,101863.63
2023-03-03T16:40:00.809Z,101869.66
2023-03-03T16:42:30.865Z,101864.13
2023-03-03T16:45:23.643Z,101866.81
2023-03-03T16:48:26.408Z,101872.22
2023-03-03T16:51:34.924Z,101870.66
2023-03-03T16:54:09.988Z,101872.44
2023-03-03T16:57:14.304Z,101870.53
2023-03-03T17:00:03.896Z,101864.19
2023-03-03T17:03:28.129Z,101874.75
2023-03-03T17:06:02.103Z,101877.38
2023-03-03T17:09:31.513Z,101864.31
2023-03-03T17:12:21.817Z,101857.41
2023-03-03T17:15:19.251Z,101852.97
2023-03-03T17:17:57.648Z,101869.72
2023-03-03T17:21:10.316Z,101867.16
2023-03-03T17:23:51.881Z,101849.56
2023-03-03T17:26:56.588Z,101876.19
2023-03-03T17:29:44.765Z,101874.53
2023-03-03T17:32:54.365Z,101886.97
2023-03-03T17:35:32.848Z,101879.81
2023-03-03T17:38:47.078Z,101863.94
2023-03-03T17:41:40.672Z,101883.97
2023-03-03T17:44:40.469Z,101870.78
2023-03-03T17:47:34.165Z,101872.63
2023-03-03T17:50:10.925Z,101888.31
2023-03-03T17:52:59.171Z,101896.34
2023-03-03T17:56:03.603Z,101890.81
2023-03-03T17:58:44.776Z,101889.41
2023-03-03T18:01:40.859Z,101890.50
2023-03-03T18:04:27.543Z,101892.31
2023-03-03T18:07:31.103Z,101895.66
2023-03-03T18:10:03.533Z,101901.25
2023-03-03T18:12:37.501Z,101901.38
2023-03-03T18:15:33.875Z,101891.59
2023-03-03T18:18:35.756Z,101899.19
2023-03-03T18:21:15.683Z,101877.38
2023-03-03T18:23:48.297Z,101895.84
2023-03-03T18:26:36.984Z,101903.03
2023-03-03T18:29:27.992Z,101891.34
2023-03-03T18:31:57.760Z,101895.75
2023-03-03T18:34:38.818Z,101884.50
2023-03-03T18:37:29.473Z,101897.13
2023-03-03T18:40:03.264Z,101893.78
2023-03-03T18:42:41.017Z,101893.72
2023-03-03T18:45:28.252Z,101889.25
2023-03-03T18:48:13.991Z,101891.97
2023-03-03T18:50:47.729Z,101888.47
2023-03-03T18:53:30.473Z,101898.19
2023-03-03T18:56:02.804Z,101898.06
2023-03-03T18:58:36.652Z,101876.28
2023-03-03T19:01:37.151Z,101894.41
2023-03-03T19:04:21.073Z,101901.53
2023-03-03T19:06:47.867Z,101902.44
2023-03-03T19:09:28.789Z,101893.63
2023-03-03T19:11:56.043Z,101893.47
2023-03-03T19:14:29.583Z,101904.41
2023-03-03T19:17:23.224Z,101890.59
2023-03-03T19:20:19.578Z,101907.91
2023-03-03T19:22:49.553Z,101901.28
2023-03-03T19:25:22.461Z,101908.38
2023-03-03T19:27:52.929Z,101910.25
2023-03-03T19:30:42.881Z,101903.13
2023-03-03T19:33:42.900Z,101912.72
2023-03-03T19:36:41.481Z,101910.19
2023-03-03T19:39:31.983Z,101911.97
2023-03-03T19:41:58.774Z,101911.03
2023-03-03T19:45:02.291Z,101892.72
2023-03-03T19:48:03.519Z,101914.19
2023-03-03T19:50:49.220Z,101911.34
2023-03-03T19:53:59.209Z,101915.94
2023-03-03T19:56:37.489Z,101916.72
2023-03-03T19:59:37.877Z,101913.88
2023-03-03T20:02:13.568Z,101908.91
2023-03-03T20:04:55.451Z,101919.38
2023-03-03T20:07:58.324Z,101916.25
2023-03-03T20:10:48.432Z,101894.53
2023-03-03T20:13:37.560Z,101908.00
2023-03-03T20:16:50.320Z,101928.19
2023-03-03T20:19:43.881Z,101911.31
2023-03-03T20:22:34.638Z,101914.09
2023-03-03T20:25:30.707Z,101906.41
2023-03-03T20:28:34.703Z,101901.34
2023-03-03T20:31:16.236Z,101899.72
2023-03-03T20:34:19.448Z,101910.34
2023-03-03T20:36:57.696Z,101907.75
2023-03-03T20:39:52.754Z,101911.69
2023-03-03T20:42:38.375Z,101911.78
2023-03-03T20:45:29.962Z,101891.06
2023-03-03T20:48:35.928Z,101912.72
2023-03-03T20:52:04.927Z,101913.63
2023-03-03T20:54:59.546Z,101912.53
2023-03-03T20:57:56.381Z,101910.03
2023-03-03T21:00:44.014Z,101908.38
2023-03-03T21:03:39.709Z,101911.19
2023-03-03T21:06:17.863Z,101925.38
2023-03-03T21:08:56.900Z,101906.59
2023-03-03T21:11:32.674Z,101912.69
2023-03-03T21:14:26.508Z,101885.66
2023-03-03T21:16:57.384Z,101908.19
2023-03-03T21:19:28.408Z,101912.78
2023-03-03T21:21:57.076Z,101913.88
2023-03-03T21:24:44.607Z,101913.13
2023-03-03T21:27:37.034Z,101915.88
2023-03-03T21:30:07.026Z,101914.81
2023-03-03T21:32:46.683Z,101918.47
2023-03-03T21:35:17.781Z,101918.53
2023-03-03T21:37:47.591Z,101907.91
2023-03-03T21:40:40.801Z,101906.97
2023-03-03T21:43:07.802Z,101891.31
2023-03-03T21:45:34.915Z,101896.59
2023-03-03T21:48:04.552Z,101907.09
2023-03-03T21:50:32.752Z,101909.88
2023-03-03T21:52:59.804Z,101913.25
2023-03-03T21:55:26.896Z,101913.25
2023-03-03T21:57:53.847Z,101905.88
2023-03-03T22:00:21.122Z,101913.44
2023-03-03T22:02:48.127Z,101913.47
2023-03-03T22:05:15.162Z,101881.69
2023-03-03T22:07:42.037Z,101903.44
2023-03-03T22:10:10.097Z,101903.66
2023-03-03T22:12:37.087Z,101901.22
2023-03-03T22:15:04.664Z,101888.03
2023-03-03T22:17:31.578Z,101894.84
2023-03-03T22:19:58.636Z,101894.00
2023-03-03T22:22:25.527Z,101885.19
2023-03-03T22:24:53.776Z,101888.56
2023-03-03T22:27:20.777Z,101892.34
2023-03-03T22:29:47.784Z,101892.41
2023-03-03T22:32:14.781Z,101892.63
2023-03-03T22:34:42.014Z,101890.78
2023-03-03T22:37:08.910Z,101867.94
2023-03-03T22:39:35.914Z,101888.06
2023-03-03T22:42:03.044Z,101881.97
2023-03-03T22:44:29.952Z,101883.53
2023-03-03T22:46:56.852Z,101873.88
2023-03-03T22:49:23.798Z,101881.78
2023-03-03T22:51:50.733Z,101875.47
2023-03-03T22:54:17.635Z,101884.41
2023-03-03T22:56:44.547Z,101885.28
2023-03-03T22:59:11.465Z,101878.44
2023-03-03T23:01:38.381Z,101859.00
2023-03-03T23:04:05.449Z,101872.78
2023-03-03T23:06:32.536Z,101877.44
2023-03-03T23:08:59.416Z,101880.28
2023-03-03T23:11:27.603Z,101871.38
2023-03-03T23:13:54.576Z,101873.03
2023-03-03T23:16:21.532Z,101873.78
2023-03-03T23:18:48.548Z,101875.63
2023-03-03T23:21:15.519Z,101875.69
2023-03-03T23:23:42.392Z,101877.34
2023-03-03T23:26:09.292Z,101873.69
2023-03-03T23:28:36.371Z,101879.94
2023-03-03T23:31:03.357Z,101872.97
2023-03-03T23:33:30.299Z,101857.25
2023-03-03T23:35:57.310Z,101880.97
2023-03-03T23:38:24.346Z,101879.88
2023-03-03T23:40:51.247Z,101869.28
2023-03-03T23:43:18.357Z,101879.97
2023-03-03T23:45:45.409Z,101870.47
2023-03-03T23:48:12.375Z,101866.22
2023-03-03T23:50:39.508Z,101871.72
2023-03-03T23:53:07.859Z,101860.94
2023-03-03T23:55:36.259Z,101853.66
2023-03-03T23:58:03.953Z,101858.94
